ADDS METAR Data INFO
IDs: Format: Raw Decoded Include TAF

Data at: 0143 UTC 18 Oct 2017

KHIE 180052Z AUTO 00000KT 10SM CLR 01/M01 A3012 RMK AO2 SLP213 T00061011
KHIE 172352Z AUTO 00000KT 10SM CLR 02/M01 A3012 RMK AO2 SLP213 T00221006 10117 20017 55001
KHIE 172252Z AUTO 00000KT 10SM CLR 04/01 A3012 RMK AO2 SLP213 T00390011
KHIE 172152Z AUTO 23003KT 10SM CLR 08/01 A3011 RMK AO2 SLP208 T00830006
KHIE 172052Z AUTO 18004KT 10SM CLR 11/M01 A3012 RMK AO2 SLP211 T01111011 56016
KHIE 171952Z AUTO 26006KT 10SM CLR 12/M02 A3014 RMK AO2 SLP216 T01171017
KHIE 171852Z AUTO 20004KT 10SM CLR 11/M02 A3015 RMK AO2 SLP219 T01111022
KHIE 171752Z AUTO 28004KT 10SM CLR 11/M02 A3017 RMK AO2 SLP226 T01061022 10111 21028 58029
KHIE 171652Z AUTO VRB04KT 10SM CLR 09/M03 A3021 RMK AO2 SLP238 T00891028
KHIE 171552Z AUTO 35003KT 10SM CLR 08/M02 A3025 RMK AO2 SLP252 T00781022
KHIE 171452Z AUTO 00000KT 10SM CLR 07/M03 A3026 RMK AO2 SLP257 T00671028 58001
KHIE 171352Z AUTO 25004KT 10SM CLR 05/M02 A3027 RMK AO2 SLP260 T00501022
KHIE 171252Z AUTO 00000KT 10SM CLR 01/M01 A3028 RMK AO2 SLP264 T00111006
KHIE 171152Z AUTO 00000KT 10SM CLR M03/M04 A3026 RMK AO2 SLP262 I1000 I6001 T10281039 10000 21044 51015
KHIE 171052Z AUTO 00000KT 10SM CLR M04/M05 A3025 RMK AO2 SLP257 I1000 T10391050
KHIE 170952Z AUTO 00000KT 10SM CLR M03/M04 A3024 RMK AO2 SLP252 I1001 T10281044
KHIE 170852Z AUTO 00000KT 10SM CLR M03/M04 A3022 RMK AO2 SLP245 I1000 I3000 T10281039 53015
KHIE 170752Z AUTO 00000KT 10SM CLR M02/M03 A3019 RMK AO2 SLP235 T10221028
KHIE 170652Z AUTO 00000KT 10SM FEW050 M01/M02 A3018 RMK AO2 SLP230 T10111017
KHIE 170552Z AUTO 00000KT 10SM FEW044 M01/M01 A3017 RMK AO2 SLP228 T10061011 10050 21006 53006
KHIE 170452Z AUTO 00000KT 10SM OVC060 01/00 A3015 RMK AO2 SLP220 T00110000 401780011
KHIE 170352Z AUTO 00000KT 10SM OVC060 02/01 A3015 RMK AO2 SLP218 T00220011
KHIE 170252Z AUTO 00000KT 10SM OVC055 03/02 A3015 RMK AO2 SLP220 T00330017 51013
KHIE 170152Z AUTO 00000KT 10SM OVC060 04/01 A3014 RMK AO2 SLP217 T00390011
KHIE 170052Z AUTO 33003KT 10SM FEW037 OVC055 04/M01 A3013 RMK AO2 SLP213 T00441006
KHIE 162352Z AUTO 00000KT 10SM OVC050 05/00 A3011 RMK AO2 SLP205 T00500000 10067 20050 50018
KHIE 162314Z AUTO 30006KT 10SM BKN030 OVC038 05/M01 A3012 RMK AO2 T00501006
KHIE 162252Z AUTO 31007KT 10SM OVC028 05/00 A3011 RMK AO2 SLP206 T00500000
KHIE 162231Z AUTO 32008KT 10SM OVC030 05/00 A3010 RMK AO2 T00500000
KHIE 162152Z AUTO 31005KT 10SM OVC028 06/00 A3009 RMK AO2 SLP196 T00560000
KHIE 162052Z AUTO 30008KT 10SM OVC026 06/01 A3006 RMK AO2 SLP184 T00560006 53014
KHIE 161952Z AUTO 30009KT 10SM OVC028 06/01 A3003 RMK AO2 SLP176 T00610006
KHIE 161919Z AUTO 31006KT 10SM OVC030 07/01 A3002 RMK AO2 T00670006
KHIE 161852Z AUTO 30009KT 10SM OVC028 07/01 A3002 RMK AO2 SLP170 T00670011
KHIE 161752Z AUTO 29006KT 10SM OVC026 07/02 A3001 RMK AO2 SLP167 T00720017 10078 20061 51011
KHIE 161652Z AUTO 32008KT 10SM OVC026 07/02 A3001 RMK AO2 SLP165 T00720017
KHIE 161552Z AUTO 28008KT 10SM OVC026 07/02 A3001 RMK AO2 SLP164 T00720017
KHIE 161528Z AUTO 29009KT 10SM OVC028 07/02 A2999 RMK AO2 T00720017
KHIE 161517Z AUTO 28005KT 10SM SCT023 OVC030 08/02 A2999 RMK AO2 T00780022
KHIE 161452Z AUTO 30010KT 10SM OVC023 07/02 A2998 RMK AO2 SLP154 T00670022 51017
KHIE 161352Z AUTO 31011G16KT 10SM OVC021 07/02 A2997 RMK AO2 SLP150 T00670022